createdAt,value
2022-11-16T00:01:12.800Z,11.90
2022-11-16T00:03:40.728Z,11.70
2022-11-16T00:06:09.430Z,11.80
2022-11-16T00:08:37.997Z,11.90
2022-11-16T00:11:06.598Z,12.00
2022-11-16T00:13:34.559Z,11.90
2022-11-16T00:16:02.286Z,11.90
2022-11-16T00:18:32.060Z,12.00
2022-11-16T00:21:00.076Z,12.00
2022-11-16T00:23:28.294Z,12.10
2022-11-16T00:25:55.967Z,12.20
2022-11-16T00:28:23.643Z,12.20
2022-11-16T00:30:58.464Z,12.10
2022-11-16T00:33:26.159Z,12.20
2022-11-16T00:35:55.205Z,12.20
2022-11-16T00:38:23.036Z,12.30
2022-11-16T00:40:50.996Z,12.30
2022-11-16T00:43:18.693Z,12.20
2022-11-16T00:45:46.408Z,12.30
2022-11-16T00:48:14.115Z,12.30
2022-11-16T00:50:42.069Z,12.20
2022-11-16T00:53:13.301Z,12.10
2022-11-16T00:55:41.225Z,12.10
2022-11-16T00:58:08.972Z,12.10
2022-11-16T01:00:36.860Z,12.20
2022-11-16T01:03:04.708Z,12.20
2022-11-16T01:05:32.396Z,12.20
2022-11-16T01:08:00.348Z,12.20
2022-11-16T01:10:29.573Z,12.20
2022-11-16T01:12:56.476Z,12.20
2022-11-16T01:15:25.134Z,12.00
2022-11-16T01:17:53.604Z,12.00
2022-11-16T01:20:22.348Z,11.90
2022-11-16T01:22:50.281Z,11.90
2022-11-16T01:25:18.126Z,11.90
2022-11-16T01:27:47.209Z,12.00
2022-11-16T01:30:16.421Z,12.00
2022-11-16T01:32:44.121Z,12.10
2022-11-16T01:35:16.012Z,12.10
2022-11-16T01:37:43.919Z,12.10
2022-11-16T01:40:12.357Z,12.10
2022-11-16T01:42:40.558Z,12.10
2022-11-16T01:45:17.212Z,12.00
2022-11-16T01:47:45.087Z,12.00
2022-11-16T01:50:14.239Z,12.00
2022-11-16T01:52:44.957Z,12.00
2022-11-16T01:55:13.101Z,11.90
2022-11-16T01:57:42.627Z,11.90
2022-11-16T02:00:13.111Z,12.00
2022-11-16T02:02:40.830Z,12.00
2022-11-16T02:05:09.065Z,12.00
2022-11-16T02:07:57.902Z,11.90
2022-11-16T02:10:33.191Z,11.90
2022-11-16T02:13:05.981Z,11.90
2022-11-16T02:15:37.642Z,11.90
2022-11-16T02:18:12.769Z,11.90
2022-11-16T02:20:45.294Z,11.90
2022-11-16T02:23:21.922Z,11.90
2022-11-16T02:25:54.738Z,11.90
2022-11-16T02:28:28.500Z,11.90
2022-11-16T02:30:58.982Z,11.90
2022-11-16T02:33:29.097Z,12.00
2022-11-16T02:35:58.216Z,12.00
2022-11-16T02:38:28.087Z,12.00
2022-11-16T02:40:58.292Z,12.10
2022-11-16T02:43:27.364Z,12.10
2022-11-16T02:45:56.305Z,12.00
2022-11-16T02:48:27.252Z,12.00
2022-11-16T02:50:55.186Z,12.00
2022-11-16T02:53:23.530Z,11.90
2022-11-16T02:55:51.351Z,11.90
2022-11-16T02:58:21.101Z,11.90
2022-11-16T03:00:52.053Z,11.90
2022-11-16T03:03:24.818Z,11.90
2022-11-16T03:05:56.215Z,11.80
2022-11-16T03:08:25.710Z,11.80
2022-11-16T03:11:12.546Z,11.80
2022-11-16T03:13:41.035Z,11.80
2022-11-16T03:16:10.660Z,11.70
2022-11-16T03:18:39.404Z,11.70
2022-11-16T03:21:11.606Z,11.70
2022-11-16T03:23:39.417Z,11.70
2022-11-16T03:26:08.228Z,11.70
2022-11-16T03:28:37.721Z,11.80
2022-11-16T03:31:08.790Z,11.90
2022-11-16T03:33:39.466Z,12.00
2022-11-16T03:36:11.792Z,11.90
2022-11-16T03:38:41.124Z,11.70
2022-11-16T03:41:09.731Z,11.70
2022-11-16T03:43:38.041Z,11.80
2022-11-16T03:46:06.137Z,11.90
2022-11-16T03:48:35.571Z,11.90
2022-11-16T03:51:03.568Z,11.90
2022-11-16T03:53:32.796Z,12.00
2022-11-16T03:56:00.553Z,12.00
2022-11-16T03:58:28.259Z,12.00
2022-11-16T04:00:56.008Z,11.80
2022-11-16T04:03:23.775Z,11.60
2022-11-16T04:06:09.313Z,11.50
2022-11-16T04:08:55.686Z,11.50
2022-11-16T04:11:41.346Z,11.40
2022-11-16T04:14:29.570Z,11.30
2022-11-16T04:17:14.653Z,11.30
2022-11-16T04:19:59.737Z,11.20
2022-11-16T04:22:47.020Z,11.20
2022-11-16T04:25:18.978Z,11.20
2022-11-16T04:28:04.360Z,11.20
2022-11-16T04:30:54.264Z,11.20
2022-11-16T04:33:39.650Z,11.20
2022-11-16T04:36:25.263Z,11.20
2022-11-16T04:38:52.974Z,11.10
2022-11-16T04:41:53.977Z,11.10
2022-11-16T04:44:25.893Z,11.00
2022-11-16T04:47:07.388Z,11.00
2022-11-16T04:49:35.479Z,11.00
2022-11-16T04:52:03.165Z,11.00
2022-11-16T04:54:30.843Z,11.10
2022-11-16T04:56:59.994Z,11.00
2022-11-16T04:59:27.694Z,11.00
2022-11-16T05:02:10.504Z,11.00
2022-11-16T05:04:39.000Z,10.90
2022-11-16T05:07:10.667Z,10.80
2022-11-16T05:09:41.366Z,10.80
2022-11-16T05:12:11.038Z,10.90
2022-11-16T05:14:38.808Z,10.90
2022-11-16T05:17:06.519Z,10.90
2022-11-16T05:19:51.894Z,10.90
2022-11-16T05:22:19.585Z,10.80
2022-11-16T05:24:47.287Z,10.90
2022-11-16T05:27:17.412Z,10.90
2022-11-16T05:29:45.250Z,10.80
2022-11-16T05:32:13.641Z,10.80
2022-11-16T05:34:41.461Z,10.80
2022-11-16T05:37:09.692Z,10.80
2022-11-16T05:39:37.669Z,10.80
2022-11-16T05:42:05.918Z,10.80
2022-11-16T05:44:35.128Z,10.80
2022-11-16T05:47:03.107Z,10.90
2022-11-16T05:49:30.866Z,10.80
2022-11-16T05:51:58.554Z,10.90
2022-11-16T05:54:26.637Z,10.90
2022-11-16T05:56:55.405Z,10.90
2022-11-16T05:59:24.063Z,10.90
2022-11-16T06:01:53.106Z,10.90
2022-11-16T06:04:24.599Z,10.90
2022-11-16T06:06:52.750Z,10.90
2022-11-16T06:09:20.782Z,10.90
2022-11-16T06:11:48.462Z,10.80
2022-11-16T06:14:16.151Z,10.80
2022-11-16T06:16:43.845Z,10.80
2022-11-16T06:19:12.904Z,10.80
2022-11-16T06:21:40.652Z,10.80
2022-11-16T06:24:09.486Z,10.90
2022-11-16T06:26:37.547Z,10.90
2022-11-16T06:29:05.519Z,10.80
2022-11-16T06:31:33.252Z,10.80
2022-11-16T06:34:00.941Z,10.80
2022-11-16T06:36:30.165Z,10.90
2022-11-16T06:38:59.577Z,10.80
2022-11-16T06:41:27.365Z,10.80
2022-11-16T06:43:55.040Z,10.80
2022-11-16T06:46:24.474Z,10.70
2022-11-16T06:48:52.169Z,10.70
2022-11-16T06:51:19.855Z,10.70
2022-11-16T06:53:48.912Z,10.70
2022-11-16T06:56:17.018Z,10.70
2022-11-16T06:58:44.725Z,10.70
2022-11-16T07:01:12.765Z,10.70
2022-11-16T07:03:40.796Z,10.60
2022-11-16T07:06:08.992Z,10.70
2022-11-16T07:08:36.910Z,10.70
2022-11-16T07:11:06.811Z,10.70
2022-11-16T07:13:34.769Z,10.70
2022-11-16T07:16:03.434Z,10.70
2022-11-16T07:18:33.317Z,10.70
2022-11-16T07:21:05.846Z,10.70
2022-11-16T07:23:33.538Z,10.70
2022-11-16T07:26:01.346Z,10.70
2022-11-16T07:28:30.804Z,10.70
2022-11-16T07:31:01.719Z,10.70
2022-11-16T07:33:33.481Z,10.70
2022-11-16T07:36:02.149Z,10.70
2022-11-16T07:38:30.019Z,10.70
2022-11-16T07:41:00.278Z,10.70
2022-11-16T07:43:31.619Z,10.80
2022-11-16T07:46:30.286Z,11.10
2022-11-16T07:48:50.894Z,11.30
2022-11-16T07:51:19.459Z,11.60
2022-11-16T07:53:47.351Z,11.80
2022-11-16T07:56:15.038Z,12.10
2022-11-16T07:58:44.084Z,12.30
2022-11-16T08:01:13.079Z,12.50
2022-11-16T08:03:41.067Z,12.60
2022-11-16T08:06:12.222Z,12.70
2022-11-16T08:08:40.052Z,12.80
2022-11-16T08:11:09.791Z,12.80
2022-11-16T08:13:38.286Z,12.80
2022-11-16T08:16:09.983Z,13.00
2022-11-16T08:18:38.518Z,13.30
2022-11-16T08:21:06.841Z,13.30
2022-11-16T08:23:34.825Z,13.20
2022-11-16T08:26:04.056Z,12.90
2022-11-16T08:28:32.603Z,12.70
2022-11-16T08:31:00.751Z,12.50
2022-11-16T08:33:30.927Z,12.40
2022-11-16T08:35:59.433Z,12.20
2022-11-16T08:38:27.117Z,12.10
2022-11-16T08:40:56.550Z,12.10
2022-11-16T08:43:24.240Z,12.30
2022-11-16T08:45:53.116Z,12.70
2022-11-16T08:48:20.845Z,13.10
2022-11-16T08:51:16.019Z,13.40
2022-11-16T08:53:37.571Z,13.50
2022-11-16T08:56:05.955Z,13.20
2022-11-16T08:58:34.056Z,12.90
2022-11-16T09:01:07.516Z,12.70
2022-11-16T09:03:35.191Z,12.50
2022-11-16T09:06:04.313Z,12.40
2022-11-16T09:08:32.261Z,12.30
2022-11-16T09:11:00.186Z,12.30
2022-11-16T09:13:27.910Z,12.30
2022-11-16T09:15:59.089Z,12.50
2022-11-16T09:18:26.800Z,12.70
2022-11-16T09:20:54.826Z,12.80
2022-11-16T09:23:25.726Z,12.70
2022-11-16T09:25:53.616Z,12.70
2022-11-16T09:28:21.900Z,12.60
2022-11-16T09:30:50.860Z,12.50
2022-11-16T09:33:18.641Z,12.30
2022-11-16T09:35:47.060Z,12.30
2022-11-16T09:38:19.735Z,12.30
2022-11-16T09:40:57.149Z,12.30
2022-11-16T09:43:32.997Z,12.40
2022-11-16T09:46:04.003Z,12.60
2022-11-16T09:48:33.045Z,12.80
2022-11-16T09:51:07.383Z,12.90
2022-11-16T09:53:37.463Z,13.00
2022-11-16T09:56:07.973Z,13.00
2022-11-16T09:58:39.728Z,12.90
2022-11-16T10:01:15.107Z,12.90
2022-11-16T10:03:44.273Z,12.90
2022-11-16T10:06:17.329Z,12.80
2022-11-16T10:08:46.436Z,12.80
2022-11-16T10:11:32.138Z,12.80
2022-11-16T10:14:06.780Z,12.80
2022-11-16T10:16:39.845Z,12.90
2022-11-16T10:19:11.545Z,13.00
2022-11-16T10:21:44.712Z,13.00
2022-11-16T10:24:26.056Z,13.00
2022-11-16T10:27:00.834Z,13.00
2022-11-16T10:29:36.513Z,13.00
2022-11-16T10:32:09.078Z,12.90
2022-11-16T10:34:41.010Z,12.60
2022-11-16T10:37:11.615Z,12.50
2022-11-16T10:39:41.009Z,12.40
2022-11-16T10:42:13.024Z,12.40
2022-11-16T10:44:42.538Z,12.30
2022-11-16T10:47:15.894Z,12.30
2022-11-16T10:49:48.665Z,12.30
2022-11-16T10:52:16.438Z,12.20
2022-11-16T10:54:44.665Z,12.20
2022-11-16T10:57:14.813Z,12.10
2022-11-16T10:59:43.868Z,12.20
2022-11-16T11:02:32.034Z,12.30
2022-11-16T11:05:08.124Z,12.20
2022-11-16T11:07:37.581Z,12.20
2022-11-16T11:10:06.099Z,12.20
2022-11-16T11:12:41.207Z,12.40
2022-11-16T11:15:25.903Z,12.70
2022-11-16T11:18:08.964Z,12.90
2022-11-16T11:20:41.655Z,13.00
2022-11-16T11:23:13.744Z,13.00
2022-11-16T11:25:42.470Z,13.00
2022-11-16T11:28:19.008Z,12.90
2022-11-16T11:30:53.066Z,12.90
2022-11-16T11:33:21.688Z,12.80
2022-11-16T11:35:57.587Z,12.60
2022-11-16T11:38:26.441Z,12.60
2022-11-16T11:40:58.440Z,12.50
2022-11-16T11:43:28.049Z,12.50
2022-11-16T11:45:57.652Z,12.50
2022-11-16T11:48:30.099Z,12.50
2022-11-16T11:51:00.199Z,12.50
2022-11-16T11:53:40.379Z,12.50
2022-11-16T11:56:10.953Z,12.60
2022-11-16T11:58:40.756Z,12.50
2022-11-16T12:01:25.500Z,12.50
2022-11-16T12:04:17.565Z,12.50
2022-11-16T12:06:53.118Z,12.50
2022-11-16T12:09:26.666Z,12.50
2022-11-16T12:11:59.598Z,12.50
2022-11-16T12:14:33.801Z,12.50
2022-11-16T12:17:05.607Z,12.40
2022-11-16T12:19:59.350Z,12.40
2022-11-16T12:22:38.010Z,12.50
2022-11-16T12:25:10.800Z,12.80
2022-11-16T12:27:45.303Z,12.90
2022-11-16T12:30:15.681Z,13.00
2022-11-16T12:32:52.567Z,13.10
2022-11-16T12:35:28.207Z,12.90
2022-11-16T12:38:00.960Z,12.90
2022-11-16T12:40:38.552Z,12.90
2022-11-16T12:43:11.201Z,12.80
2022-11-16T12:45:47.396Z,12.70
2022-11-16T12:48:35.590Z,12.70
2022-11-16T12:51:06.046Z,12.60
2022-11-16T12:53:47.489Z,12.60
2022-11-16T12:56:19.516Z,12.50
2022-11-16T12:58:55.118Z,12.60
2022-11-16T13:01:27.272Z,12.70
2022-11-16T13:03:56.577Z,12.80
2022-11-16T13:06:28.020Z,12.80
2022-11-16T13:09:01.567Z,12.80
2022-11-16T13:11:31.447Z,13.00
2022-11-16T13:14:01.334Z,13.00
2022-11-16T13:16:30.610Z,13.00
2022-11-16T13:18:59.018Z,13.00
2022-11-16T13:21:32.261Z,13.00
2022-11-16T13:24:07.730Z,13.10
2022-11-16T13:26:39.717Z,13.10
2022-11-16T13:29:14.067Z,13.10
2022-11-16T13:31:48.602Z,13.10
2022-11-16T13:34:21.371Z,13.10
2022-11-16T13:36:49.049Z,13.00
2022-11-16T13:39:22.253Z,12.90
2022-11-16T13:41:50.925Z,12.90
2022-11-16T13:44:26.712Z,13.00
2022-11-16T13:46:57.349Z,13.00
2022-11-16T13:49:27.125Z,13.00
2022-11-16T13:51:56.225Z,12.90
2022-11-16T13:54:45.056Z,12.90
2022-11-16T13:57:21.671Z,12.80
2022-11-16T13:59:50.088Z,12.70
2022-11-16T14:02:30.953Z,12.60
2022-11-16T14:04:59.812Z,12.60
2022-11-16T14:07:35.274Z,12.60
2022-11-16T14:10:05.565Z,12.60
2022-11-16T14:12:56.462Z,12.50
2022-11-16T14:15:28.587Z,12.50
2022-11-16T14:18:00.121Z,12.50
2022-11-16T14:20:32.213Z,12.40
2022-11-16T14:23:11.222Z,12.30
2022-11-16T14:25:41.081Z,12.30
2022-11-16T14:28:17.369Z,12.30
2022-11-16T14:30:51.054Z,12.30
2022-11-16T14:33:28.445Z,12.30
2022-11-16T14:35:56.378Z,12.30
2022-11-16T14:38:29.607Z,12.30
2022-11-16T14:40:59.842Z,12.30
2022-11-16T14:43:28.950Z,12.30
2022-11-16T14:45:59.406Z,12.30
2022-11-16T14:48:28.912Z,12.30
2022-11-16T14:51:07.319Z,12.20
2022-11-16T14:53:36.353Z,12.30
2022-11-16T14:56:08.710Z,12.30
2022-11-16T14:58:36.873Z,12.30
2022-11-16T15:01:05.888Z,12.30
2022-11-16T15:03:36.892Z,12.30
2022-11-16T15:06:05.564Z,12.20
2022-11-16T15:08:35.342Z,12.10
2022-11-16T15:11:03.118Z,12.00
2022-11-16T15:13:31.017Z,12.00
2022-11-16T15:16:12.051Z,11.90
2022-11-16T15:18:41.082Z,11.80
2022-11-16T15:21:21.280Z,11.70
2022-11-16T15:24:01.997Z,11.70
2022-11-16T15:26:38.596Z,11.70
2022-11-16T15:29:06.295Z,11.70
2022-11-16T15:31:35.327Z,11.80
2022-11-16T15:34:04.403Z,11.90
2022-11-16T15:36:41.007Z,11.90
2022-11-16T15:39:13.287Z,11.80
2022-11-16T15:41:41.337Z,11.90
2022-11-16T15:44:14.466Z,11.90
2022-11-16T15:46:45.498Z,11.90
2022-11-16T15:49:20.823Z,11.90
2022-11-16T15:51:48.546Z,12.00
2022-11-16T15:54:22.458Z,12.00
2022-11-16T15:56:50.866Z,12.00
2022-11-16T15:59:22.347Z,12.00
2022-11-16T16:01:50.252Z,12.00
2022-11-16T16:04:19.456Z,12.10
2022-11-16T16:06:48.011Z,12.00
2022-11-16T16:09:26.475Z,12.00
2022-11-16T16:11:54.685Z,12.10
2022-11-16T16:14:24.167Z,12.10
2022-11-16T16:16:52.394Z,12.00
2022-11-16T16:19:35.565Z,12.00
2022-11-16T16:22:05.416Z,12.00
2022-11-16T16:24:43.272Z,12.00
2022-11-16T16:27:15.508Z,12.00
2022-11-16T16:29:43.508Z,11.90
2022-11-16T16:32:17.040Z,11.90
2022-11-16T16:34:44.726Z,11.90
2022-11-16T16:37:13.777Z,11.80
2022-11-16T16:39:42.108Z,11.80
2022-11-16T16:42:11.934Z,11.80
2022-11-16T16:44:39.645Z,11.70
2022-11-16T16:47:07.464Z,11.70
2022-11-16T16:49:35.389Z,11.70
2022-11-16T16:52:03.268Z,11.70
2022-11-16T16:54:32.337Z,11.60
2022-11-16T16:57:01.343Z,11.60
2022-11-16T16:59:29.913Z,11.60
2022-11-16T17:01:57.904Z,11.50
2022-11-16T17:04:25.756Z,11.60
2022-11-16T17:06:54.154Z,11.60
2022-11-16T17:09:21.919Z,11.50
2022-11-16T17:11:50.930Z,11.50
2022-11-16T17:14:19.795Z,11.50
2022-11-16T17:16:47.602Z,11.40
2022-11-16T17:19:15.553Z,11.40
2022-11-16T17:21:43.231Z,11.20
2022-11-16T17:24:11.689Z,11.20
2022-11-16T17:26:39.390Z,11.20
2022-11-16T17:29:08.547Z,11.10
2022-11-16T17:31:36.263Z,11.20
2022-11-16T17:34:05.702Z,11.10
2022-11-16T17:36:34.969Z,11.10
2022-11-16T17:39:02.840Z,11.00
2022-11-16T17:41:30.521Z,11.10
2022-11-16T17:43:58.403Z,11.10
2022-11-16T17:46:27.443Z,11.10
2022-11-16T17:48:55.147Z,11.20
2022-11-16T17:51:23.744Z,11.20
2022-11-16T17:53:51.889Z,11.20
2022-11-16T17:56:20.497Z,11.20
2022-11-16T17:58:49.970Z,11.20
2022-11-16T18:01:17.901Z,11.20
2022-11-16T18:03:47.191Z,11.20
2022-11-16T18:06:16.086Z,11.20
2022-11-16T18:08:44.540Z,11.10
2022-11-16T18:11:13.625Z,11.10
2022-11-16T18:13:41.649Z,11.10
2022-11-16T18:16:12.076Z,11.00
2022-11-16T18:18:40.093Z,10.90
2022-11-16T18:21:09.737Z,10.90
2022-11-16T18:23:38.261Z,10.80
2022-11-16T18:26:07.766Z,10.80
2022-11-16T18:28:35.653Z,10.80
2022-11-16T18:31:04.310Z,10.70
2022-11-16T18:33:32.537Z,10.60
2022-11-16T18:36:00.432Z,10.60
2022-11-16T18:38:29.537Z,10.50
2022-11-16T18:41:03.894Z,10.50
2022-11-16T18:43:32.049Z,10.50
2022-11-16T18:46:00.010Z,10.50
2022-11-16T18:48:27.671Z,10.50
2022-11-16T18:50:58.133Z,10.40
2022-11-16T18:53:26.020Z,10.40
2022-11-16T18:55:58.102Z,10.40
2022-11-16T19:01:16.834Z,10.40
2022-11-16T19:03:44.631Z,10.40
2022-11-16T19:06:12.742Z,10.40
2022-11-16T19:08:41.288Z,10.30
2022-11-16T19:11:11.510Z,10.30
2022-11-16T19:13:39.306Z,10.30
2022-11-16T19:16:07.345Z,10.30
2022-11-16T19:18:35.715Z,10.20
2022-11-16T19:21:03.900Z,10.30
2022-11-16T19:23:31.941Z,10.30
2022-11-16T19:26:04.755Z,10.40
2022-11-16T19:28:37.084Z,10.50
2022-11-16T19:31:08.691Z,10.50
2022-11-16T19:33:36.886Z,10.40
2022-11-16T19:36:08.525Z,10.50
2022-11-16T19:38:36.369Z,10.50
2022-11-16T19:41:04.286Z,10.40
2022-11-16T19:43:32.455Z,10.40
2022-11-16T19:46:04.389Z,10.30
2022-11-16T19:48:32.889Z,10.30
2022-11-16T19:51:04.648Z,10.40
2022-11-16T19:53:33.508Z,10.30
2022-11-16T19:56:01.583Z,10.40
2022-11-16T19:58:29.263Z,10.30
2022-11-16T20:01:01.191Z,10.30
2022-11-16T20:03:30.540Z,10.30
2022-11-16T20:06:04.996Z,10.10
2022-11-16T20:08:32.680Z,10.20
2022-11-16T20:11:00.359Z,10.10
2022-11-16T20:13:28.109Z,10.10
2022-11-16T20:15:55.794Z,10.10
2022-11-16T20:18:23.474Z,10.10
2022-11-16T20:20:52.532Z,10.10
2022-11-16T20:23:20.364Z,10.10
2022-11-16T20:25:48.042Z,10.20
2022-11-16T20:28:15.843Z,10.30
2022-11-16T20:30:46.306Z,10.20
2022-11-16T20:33:14.578Z,10.10
2022-11-16T20:35:42.316Z,10.20
2022-11-16T20:38:11.350Z,10.30
2022-11-16T20:40:39.032Z,10.30
2022-11-16T20:43:08.988Z,10.30
2022-11-16T20:45:36.692Z,10.30
2022-11-16T20:48:05.225Z,10.20
2022-11-16T20:50:32.905Z,10.20
2022-11-16T20:53:00.614Z,10.20
2022-11-16T20:55:29.685Z,10.20
2022-11-16T20:57:57.376Z,10.10
2022-11-16T21:00:25.036Z,10.20
2022-11-16T21:02:52.762Z,10.20
2022-11-16T21:05:20.588Z,10.20
2022-11-16T21:07:48.499Z,10.20
2022-11-16T21:10:19.166Z,10.10
2022-11-16T21:13:05.994Z,10.10
2022-11-16T21:15:33.676Z,10.00
2022-11-16T21:18:01.438Z,10.00
2022-11-16T21:20:29.146Z,10.00
2022-11-16T21:22:56.836Z,10.00
2022-11-16T21:25:24.533Z,10.00
2022-11-16T21:27:53.671Z,9.90
2022-11-16T21:30:21.488Z,9.90
2022-11-16T21:32:49.717Z,9.90
2022-11-16T21:35:17.920Z,9.90
2022-11-16T21:37:45.619Z,9.90
2022-11-16T21:40:13.500Z,9.90
2022-11-16T21:42:41.195Z,9.80
2022-11-16T21:45:11.094Z,9.80
2022-11-16T21:47:38.777Z,9.90
2022-11-16T21:52:54.692Z,9.90
2022-11-16T21:55:22.391Z,9.90
2022-11-16T21:57:50.100Z,9.90
2022-11-16T22:00:19.825Z,9.90
2022-11-16T22:02:47.541Z,9.90
2022-11-16T22:05:32.845Z,10.00
2022-11-16T22:08:04.559Z,10.20
2022-11-16T22:10:32.246Z,10.50
2022-11-16T22:13:00.031Z,10.70
2022-11-16T22:15:29.128Z,10.90
2022-11-16T22:17:56.824Z,11.00
2022-11-16T22:20:24.501Z,11.00
2022-11-16T22:22:52.184Z,10.90
2022-11-16T22:25:19.992Z,11.00
2022-11-16T22:28:13.888Z,11.00
2022-11-16T22:30:37.791Z,10.80
2022-11-16T22:33:05.474Z,10.60
2022-11-16T22:35:33.136Z,10.40
2022-11-16T22:38:03.019Z,10.40
2022-11-16T22:40:30.797Z,10.40
2022-11-16T22:42:58.734Z,10.30
2022-11-16T22:45:26.719Z,10.40
2022-11-16T22:47:56.496Z,10.40
2022-11-16T22:50:24.288Z,10.50
2022-11-16T22:52:51.976Z,10.70
2022-11-16T22:55:19.674Z,10.60
2022-11-16T22:57:47.347Z,10.60
2022-11-16T23:00:15.409Z,10.60
2022-11-16T23:02:43.106Z,10.60
2022-11-16T23:05:12.745Z,10.60
2022-11-16T23:07:41.327Z,10.80
2022-11-16T23:10:09.516Z,10.90
2022-11-16T23:12:54.911Z,10.80
2022-11-16T23:15:45.310Z,10.70
2022-11-16T23:18:13.049Z,10.60
2022-11-16T23:20:59.746Z,10.70
2022-11-16T23:23:44.837Z,10.60
2022-11-16T23:26:30.614Z,10.70
2022-11-16T23:28:58.394Z,10.80
2022-11-16T23:31:26.053Z,10.90
2022-11-16T23:33:53.754Z,11.00
2022-11-16T23:36:22.801Z,11.00
2022-11-16T23:38:50.487Z,10.90
2022-11-16T23:41:35.762Z,10.60
2022-11-16T23:44:03.437Z,10.50
2022-11-16T23:46:31.762Z,10.40
2022-11-16T23:49:00.650Z,10.20
2022-11-16T23:51:29.715Z,10.30
2022-11-16T23:53:57.423Z,10.40
2022-11-16T23:56:25.138Z,10.30
2022-11-16T23:58:55.758Z,10.40
